Time;durP1;ratioP1;P1;durP2;ratioP2;P2;SDS_P1;SDS_P2;PMS_P1;PMS_P2;Temp;Humidity;BMP_temperature;BMP_pressure;BME280_temperature;BME280_humidity;BME280_pressure;Samples;Min_cycle;Max_cycle;Signal;HPM_P1;HPM_P2
2021/08/19 00:00:01;;;;;;;15.30;7.68;;;19.10;63.90;;;;;;5053853;28;20052;-91
2021/08/19 00:02:27;;;;;;;11.32;7.28;;;19.10;63.90;;;;;;5039409;28;20089;-93
2021/08/19 00:04:52;;;;;;;12.20;7.45;;;19.10;63.90;;;;;;5036989;28;20424;-92
2021/08/19 00:07:19;;;;;;;13.10;7.40;;;19.10;64.00;;;;;;5037002;28;20066;-91
2021/08/19 00:09:45;;;;;;;13.13;7.75;;;19.10;64.20;;;;;;5036749;28;20017;-92
2021/08/19 00:12:12;;;;;;;14.63;7.72;;;19.10;64.10;;;;;;5036930;28;20021;-91
2021/08/19 00:14:38;;;;;;;12.32;7.45;;;19.20;64.20;;;;;;5036689;28;20025;-92
2021/08/19 00:17:06;;;;;;;13.73;7.65;;;19.20;64.20;;;;;;5037595;28;20116;-90
2021/08/19 00:19:32;;;;;;;15.73;7.50;;;19.20;64.20;;;;;;5036588;28;20021;-90
2021/08/19 00:21:58;;;;;;;14.98;8.00;;;19.20;64.30;;;;;;5036825;28;20403;-91
2021/08/19 00:24:24;;;;;;;13.00;7.75;;;19.20;64.20;;;;;;5036723;28;20032;-92
2021/08/19 00:26:50;;;;;;;10.38;6.72;;;19.20;64.20;;;;;;5036476;28;20029;-91
2021/08/19 00:29:16;;;;;;;10.82;6.80;;;19.20;64.20;;;;;;5036345;28;20430;-91
2021/08/19 00:31:42;;;;;;;14.63;7.43;;;19.20;64.10;;;;;;5035941;28;20021;-91
2021/08/19 00:34:07;;;;;;;13.98;7.32;;;19.30;64.10;;;;;;5034375;28;20078;-90
2021/08/19 00:36:34;;;;;;;15.63;8.05;;;19.30;64.10;;;;;;5036667;28;20024;-90
2021/08/19 00:39:00;;;;;;;14.00;7.68;;;19.30;64.00;;;;;;5038087;28;20029;-89
2021/08/19 00:41:25;;;;;;;12.15;7.75;;;19.30;64.00;;;;;;5040130;28;20372;-90
2021/08/19 00:43:51;;;;;;;12.80;7.60;;;19.30;63.90;;;;;;5040594;28;20118;-90
2021/08/19 00:46:35;;;;;;;15.48;8.35;;;19.30;63.90;;;;;;5040372;28;20115;-90
2021/08/19 00:49:14;;;;;;;15.38;8.48;;;19.30;64.10;;;;;;5040474;28;20032;-91
2021/08/19 00:51:41;;;;;;;19.55;7.82;;;19.40;64.10;;;;;;5040899;28;20025;-91
2021/08/19 00:54:38;;;;;;;13.40;7.55;;;19.30;64.10;;;;;;5042290;28;20443;-90
2021/08/19 00:57:06;;;;;;;15.77;8.02;;;19.40;64.20;;;;;;4987277;28;20062;-91
2021/08/19 00:59:36;;;;;;;14.50;7.80;;;19.30;64.10;;;;;;4978624;28;20023;-91
2021/08/19 01:02:03;;;;;;;12.85;7.95;;;19.30;64.10;;;;;;4977286;28;20049;-90
2021/08/19 01:04:31;;;;;;;13.40;8.20;;;19.40;64.10;;;;;;4976886;28;20027;-90
2021/08/19 01:06:59;;;;;;;12.60;6.88;;;19.40;64.10;;;;;;4977180;28;20035;-91
2021/08/19 01:09:25;;;;;;;11.25;7.32;;;19.40;64.10;;;;;;4977040;28;20023;-91
2021/08/19 01:11:52;;;;;;;12.40;7.25;;;19.40;64.10;;;;;;4977041;28;20062;-92
2021/08/19 01:14:18;;;;;;;13.95;8.00;;;19.40;64.00;;;;;;4977038;28;20066;-93
2021/08/19 01:16:48;;;;;;;12.48;7.25;;;19.40;64.00;;;;;;4978071;28;20029;-93
2021/08/19 01:19:21;;;;;;;14.55;8.15;;;19.40;64.00;;;;;;4961038;28;20054;-92
2021/08/19 01:21:51;;;;;;;12.30;7.70;;;19.40;64.20;;;;;;4960619;28;20026;-92
2021/08/19 01:24:18;;;;;;;13.93;8.02;;;19.40;64.00;;;;;;4960739;28;20062;-92
2021/08/19 01:26:46;;;;;;;12.88;7.57;;;19.40;64.00;;;;;;4960664;28;20039;-92
2021/08/19 01:29:12;;;;;;;13.43;7.85;;;19.40;63.90;;;;;;4960346;28;20050;-92
2021/08/19 01:31:38;;;;;;;11.60;7.22;;;19.40;64.00;;;;;;4960733;28;20436;-92
2021/08/19 01:34:04;;;;;;;11.50;6.65;;;19.40;64.10;;;;;;5002699;28;20033;-92
2021/08/19 01:36:30;;;;;;;16.38;8.00;;;19.40;64.20;;;;;;5016459;28;20476;-92
2021/08/19 01:38:56;;;;;;;12.30;7.55;;;19.40;64.20;;;;;;5016509;28;20172;-91
2021/08/19 01:41:22;;;;;;;17.65;7.78;;;19.40;64.30;;;;;;5027087;28;20014;-92
2021/08/19 01:43:49;;;;;;;16.35;8.23;;;19.30;64.30;;;;;;5040158;28;20029;-91
2021/08/19 01:46:17;;;;;;;12.90;7.35;;;19.30;64.30;;;;;;5027634;28;20034;-89
2021/08/19 01:48:48;;;;;;;13.95;7.88;;;19.40;64.40;;;;;;5018725;28;20028;-91
2021/08/19 01:51:14;;;;;;;13.40;7.15;;;19.30;64.40;;;;;;5016770;28;20026;-92
2021/08/19 01:53:44;;;;;;;13.40;7.10;;;19.30;64.30;;;;;;5016205;28;20033;-92
2021/08/19 01:56:11;;;;;;;13.23;7.03;;;19.40;64.40;;;;;;5016405;28;20057;-91
2021/08/19 01:58:37;;;;;;;14.55;7.68;;;19.40;64.40;;;;;;5015969;28;20472;-91
2021/08/19 02:01:03;;;;;;;12.63;7.45;;;19.40;64.30;;;;;;5016129;28;20083;-91
2021/08/19 02:03:28;;;;;;;10.77;7.40;;;19.40;64.30;;;;;;5015952;28;20038;-91
2021/08/19 02:05:54;;;;;;;13.55;7.30;;;19.40;64.30;;;;;;5016882;28;20010;-91
2021/08/19 02:08:20;;;;;;;11.85;7.30;;;19.40;64.30;;;;;;5026510;28;20021;-92
2021/08/19 02:10:46;;;;;;;12.23;7.65;;;19.40;64.20;;;;;;5036082;28;20030;-91
2021/08/19 02:13:13;;;;;;;13.82;8.25;;;19.40;64.20;;;;;;5023791;28;20562;-92
2021/08/19 02:15:40;;;;;;;12.95;7.60;;;19.40;64.20;;;;;;5016289;28;20022;-92
2021/08/19 02:18:06;;;;;;;11.13;7.28;;;19.40;64.20;;;;;;5015761;28;20053;-92
2021/08/19 02:20:32;;;;;;;13.30;7.47;;;19.40;64.10;;;;;;5015277;28;20464;-91
2021/08/19 02:22:59;;;;;;;15.50;8.18;;;19.50;64.30;;;;;;5015535;28;20041;-92
2021/08/19 02:25:25;;;;;;;14.45;7.78;;;19.50;64.30;;;;;;5015496;28;20096;-92
2021/08/19 02:27:51;;;;;;;11.18;7.53;;;19.40;64.10;;;;;;5015567;28;20034;-91
2021/08/19 02:30:17;;;;;;;11.55;7.10;;;19.40;64.00;;;;;;5015192;28;20046;-93
2021/08/19 02:32:43;;;;;;;12.77;7.72;;;19.40;64.00;;;;;;5025937;28;20026;-92
2021/08/19 02:35:08;;;;;;;12.65;7.82;;;19.40;63.90;;;;;;5034520;28;20133;-92
2021/08/19 02:37:34;;;;;;;13.48;7.78;;;19.40;64.00;;;;;;5034804;28;20495;-92
2021/08/19 02:40:00;;;;;;;13.18;7.53;;;19.30;64.00;;;;;;5034263;28;20034;-92
2021/08/19 02:42:26;;;;;;;9.90;6.28;;;19.30;64.10;;;;;;5036065;28;20038;-92
2021/08/19 02:44:52;;;;;;;16.30;8.88;;;19.30;64.10;;;;;;5038678;28;20021;-93
2021/08/19 02:47:18;;;;;;;12.15;7.55;;;19.30;64.30;;;;;;5045114;28;20091;-92
2021/08/19 02:49:44;;;;;;;16.42;8.45;;;19.30;64.30;;;;;;5036859;28;20028;-92
2021/08/19 02:52:15;;;;;;;13.27;7.95;;;19.30;64.40;;;;;;5044317;28;20161;-92
2021/08/19 02:54:41;;;;;;;12.90;7.82;;;19.30;64.40;;;;;;5023991;28;20025;-92
2021/08/19 02:57:06;;;;;;;16.25;8.60;;;19.30;64.40;;;;;;5036333;28;20030;-92
2021/08/19 02:59:32;;;;;;;14.93;8.60;;;19.30;64.40;;;;;;5034134;28;20514;-92
2021/08/19 03:01:58;;;;;;;12.63;7.75;;;19.30;64.50;;;;;;5034378;28;20026;-93
2021/08/19 03:04:24;;;;;;;14.63;8.40;;;19.30;64.30;;;;;;5034134;28;20076;-93
2021/08/19 03:06:49;;;;;;;15.60;8.02;;;19.30;64.40;;;;;;5034277;28;20029;-93
2021/08/19 03:09:15;;;;;;;13.68;7.88;;;19.30;64.40;;;;;;5034112;28;20029;-91
2021/08/19 03:11:41;;;;;;;11.60;7.40;;;19.30;64.40;;;;;;5034470;28;20029;-93
2021/08/19 03:14:07;;;;;;;14.70;8.23;;;19.30;64.40;;;;;;5034487;28;20045;-92
2021/08/19 03:16:32;;;;;;;13.77;8.07;;;19.30;64.40;;;;;;5033946;28;20454;-92
2021/08/19 03:18:58;;;;;;;13.45;7.97;;;19.30;64.40;;;;;;5034642;28;20024;-92
2021/08/19 03:21:25;;;;;;;14.38;8.25;;;19.30;64.50;;;;;;5033916;28;20105;-92
2021/08/19 03:23:52;;;;;;;15.77;8.20;;;19.30;64.60;;;;;;5034460;28;20446;-92
2021/08/19 03:26:18;;;;;;;17.63;9.25;;;19.30;64.70;;;;;;5033947;28;20052;-92
2021/08/19 03:28:44;;;;;;;12.98;8.00;;;19.30;64.70;;;;;;5034167;28;20045;-91
2021/08/19 03:31:10;;;;;;;14.15;8.52;;;19.30;64.70;;;;;;5033542;28;20026;-92
2021/08/19 03:33:38;;;;;;;13.77;8.60;;;19.40;64.70;;;;;;5034464;28;20022;-92
2021/08/19 03:36:05;;;;;;;17.67;9.18;;;19.40;64.80;;;;;;5033678;28;20021;-93
2021/08/19 03:38:31;;;;;;;14.20;8.82;;;19.40;64.80;;;;;;5033668;28;20164;-92
2021/08/19 03:40:57;;;;;;;17.02;9.05;;;19.40;64.80;;;;;;5034073;28;20047;-92
2021/08/19 03:43:23;;;;;;;14.65;8.32;;;19.40;64.80;;;;;;5033596;28;20033;-92
2021/08/19 03:45:49;;;;;;;13.57;8.13;;;19.50;64.90;;;;;;5033752;28;20021;-92
2021/08/19 03:48:16;;;;;;;15.00;8.82;;;19.50;64.80;;;;;;5033470;28;20032;-92
2021/08/19 03:50:43;;;;;;;14.77;8.88;;;19.50;64.70;;;;;;5033624;28;20028;-93
2021/08/19 03:53:09;;;;;;;14.13;8.63;;;19.50;64.70;;;;;;5033618;28;20022;-92
2021/08/19 03:55:35;;;;;;;15.18;9.75;;;19.50;64.70;;;;;;5034003;28;20056;-93
2021/08/19 03:58:01;;;;;;;18.10;9.07;;;19.60;64.70;;;;;;5034097;28;20014;-92
2021/08/19 04:00:27;;;;;;;21.05;10.50;;;19.60;64.60;;;;;;5033871;28;20029;-91
2021/08/19 04:02:52;;;;;;;17.80;9.32;;;19.60;64.60;;;;;;5033226;28;20037;-91
2021/08/19 04:05:18;;;;;;;18.73;10.05;;;19.60;64.50;;;;;;5033612;28;20403;-92
2021/08/19 04:07:44;;;;;;;15.75;9.25;;;19.60;64.50;;;;;;5033351;28;20021;-92
2021/08/19 04:10:10;;;;;;;19.45;9.60;;;19.60;64.50;;;;;;5033425;28;20025;-92
2021/08/19 04:12:37;;;;;;;18.33;9.52;;;19.70;64.50;;;;;;5033236;28;20025;-92
2021/08/19 04:15:05;;;;;;;17.00;8.55;;;19.70;64.40;;;;;;5033197;28;20045;-91
2021/08/19 04:17:31;;;;;;;17.70;9.40;;;19.70;64.40;;;;;;5034174;28;20025;-92
2021/08/19 04:19:57;;;;;;;16.83;9.40;;;19.70;64.40;;;;;;5046114;28;20028;-91
2021/08/19 04:22:23;;;;;;;20.02;10.20;;;19.70;64.40;;;;;;5051469;28;20033;-91
2021/08/19 04:24:49;;;;;;;20.92;10.05;;;19.70;64.30;;;;;;5040660;28;20033;-92
2021/08/19 04:27:14;;;;;;;17.23;9.70;;;19.80;64.30;;;;;;5033975;28;20052;-93
2021/08/19 04:29:40;;;;;;;21.92;11.15;;;19.80;64.20;;;;;;5036559;28;20373;-91
2021/08/19 04:32:07;;;;;;;24.30;10.40;;;19.80;64.20;;;;;;5034732;28;20036;-92
2021/08/19 04:34:32;;;;;;;21.50;10.52;;;19.80;64.10;;;;;;5035589;28;20080;-92
2021/08/19 04:36:58;;;;;;;16.38;8.73;;;19.80;64.00;;;;;;5045207;28;20029;-91
2021/08/19 04:39:24;;;;;;;21.60;9.68;;;19.80;64.00;;;;;;5034025;28;20471;-92
2021/08/19 04:41:50;;;;;;;16.38;8.85;;;19.90;64.10;;;;;;5033024;28;20033;-91
2021/08/19 04:44:17;;;;;;;14.10;8.18;;;19.90;64.00;;;;;;5034026;28;20030;-92
2021/08/19 04:46:43;;;;;;;14.35;8.50;;;19.90;63.80;;;;;;5033037;28;20029;-92
2021/08/19 04:49:09;;;;;;;13.40;7.72;;;20.00;63.80;;;;;;5033229;28;20543;-91
2021/08/19 04:51:35;;;;;;;14.48;7.60;;;19.90;63.60;;;;;;5033032;28;20060;-92
2021/08/19 04:54:02;;;;;;;16.05;8.65;;;20.00;63.70;;;;;;5033236;28;20160;-92
2021/08/19 04:56:30;;;;;;;19.02;8.80;;;20.00;63.60;;;;;;5033150;28;20021;-93
2021/08/19 04:58:57;;;;;;;13.90;7.97;;;20.10;63.60;;;;;;5032734;28;20026;-92
2021/08/19 05:01:23;;;;;;;15.55;8.63;;;20.10;63.60;;;;;;5033085;28;20021;-90
2021/08/19 05:03:49;;;;;;;15.18;9.02;;;20.10;63.50;;;;;;5032318;28;20036;-92
2021/08/19 05:06:14;;;;;;;14.90;8.85;;;20.10;63.50;;;;;;5032617;28;20057;-93
2021/08/19 05:08:40;;;;;;;17.98;9.80;;;20.10;63.30;;;;;;5016183;28;20121;-92
2021/08/19 05:11:06;;;;;;;16.50;9.20;;;20.20;63.40;;;;;;5021071;28;20750;-91
2021/08/19 05:13:32;;;;;;;17.00;9.80;;;20.20;63.40;;;;;;5038917;28;20025;-91
2021/08/19 05:15:57;;;;;;;14.27;8.60;;;20.20;63.30;;;;;;5033454;28;20024;-91
2021/08/19 05:18:25;;;;;;;16.92;9.65;;;20.20;63.20;;;;;;5033745;28;20499;-91
2021/08/19 05:20:51;;;;;;;16.13;9.40;;;20.30;63.20;;;;;;5032996;28;20022;-91
2021/08/19 05:23:17;;;;;;;17.88;10.23;;;20.30;63.10;;;;;;5033378;28;20029;-92
2021/08/19 05:25:43;;;;;;;19.85;10.48;;;20.30;63.10;;;;;;5057184;28;20051;-90
2021/08/19 05:28:09;;;;;;;17.67;9.32;;;20.40;63.00;;;;;;5055448;28;20484;-90
2021/08/19 05:30:34;;;;;;;19.25;10.02;;;20.40;63.00;;;;;;5039746;28;20053;-91
2021/08/19 05:33:00;;;;;;;19.70;9.93;;;20.40;62.80;;;;;;5037388;28;20079;-92
2021/08/19 05:35:26;;;;;;;20.00;9.93;;;20.50;62.70;;;;;;5031475;28;20041;-91
2021/08/19 05:37:52;;;;;;;17.25;9.10;;;20.50;62.80;;;;;;5016736;28;20033;-90
2021/08/19 05:40:17;;;;;;;22.65;10.48;;;20.60;62.80;;;;;;5016568;28;20128;-90
2021/08/19 05:42:43;;;;;;;18.38;10.13;;;20.60;62.80;;;;;;5016886;28;20096;-91
2021/08/19 05:45:09;;;;;;;21.17;11.02;;;20.70;62.40;;;;;;5028031;28;20022;-91
2021/08/19 05:47:35;;;;;;;22.08;10.65;;;20.70;62.10;;;;;;5020923;28;20380;-90
2021/08/19 05:50:03;;;;;;;19.98;10.80;;;20.80;62.00;;;;;;5017953;28;20061;-91
2021/08/19 05:52:28;;;;;;;20.65;11.43;;;20.90;61.90;;;;;;5035727;28;20074;-91
2021/08/19 05:54:54;;;;;;;20.00;11.43;;;20.90;61.60;;;;;;5035866;28;20017;-91
2021/08/19 05:57:20;;;;;;;18.13;10.50;;;21.00;61.70;;;;;;5035096;28;20486;-92
2021/08/19 05:59:47;;;;;;;18.23;10.60;;;21.10;61.40;;;;;;5035733;28;20017;-92
2021/08/19 06:02:12;;;;;;;27.25;9.88;;;21.10;61.10;;;;;;5035118;28;20081;-91
2021/08/19 06:04:38;;;;;;;25.20;11.65;;;21.20;61.10;;;;;;5036023;28;20032;-92
2021/08/19 06:07:04;;;;;;;26.83;11.27;;;21.20;60.70;;;;;;5035537;28;20092;-91
2021/08/19 06:09:30;;;;;;;26.45;11.52;;;21.30;60.70;;;;;;5035883;28;20479;-92
2021/08/19 06:11:56;;;;;;;21.33;11.23;;;21.40;60.60;;;;;;5036435;28;20029;-89
2021/08/19 06:14:22;;;;;;;18.15;10.30;;;21.50;60.60;;;;;;5035719;28;20032;-91
2021/08/19 06:16:48;;;;;;;19.65;10.68;;;21.60;60.60;;;;;;5035565;28;20026;-92
2021/08/19 06:19:13;;;;;;;18.55;11.32;;;21.70;60.30;;;;;;5035708;28;20479;-90
2021/08/19 06:21:39;;;;;;;18.55;9.60;;;21.80;59.90;;;;;;5036198;28;20017;-93
2021/08/19 06:24:05;;;;;;;26.20;11.35;;;21.90;59.90;;;;;;5038401;28;20021;-93
2021/08/19 06:26:31;;;;;;;17.52;9.27;;;22.00;59.50;;;;;;5054459;28;20022;-92
2021/08/19 06:28:57;;;;;;;25.67;11.23;;;22.10;59.40;;;;;;5038729;28;20488;-92
2021/08/19 06:31:23;;;;;;;20.02;11.00;;;22.10;59.10;;;;;;5045793;28;20033;-91
2021/08/19 06:33:48;;;;;;;23.13;12.32;;;22.20;59.00;;;;;;5046870;28;20022;-91
2021/08/19 06:36:14;;;;;;;21.92;12.20;;;22.30;58.70;;;;;;5035812;28;20029;-92
2021/08/19 06:38:40;;;;;;;19.52;11.07;;;22.40;58.50;;;;;;5034784;28;20365;-91
2021/08/19 06:41:06;;;;;;;23.58;13.10;;;22.60;58.40;;;;;;5033954;28;20487;-91
2021/08/19 06:43:32;;;;;;;21.13;12.38;;;22.70;57.80;;;;;;5030939;28;20049;-91
2021/08/19 06:45:58;;;;;;;24.73;11.88;;;22.70;57.50;;;;;;5034055;28;20075;-93
2021/08/19 06:48:23;;;;;;;30.90;12.95;;;22.80;57.10;;;;;;5035778;28;20431;-92
2021/08/19 06:50:49;;;;;;;23.27;12.43;;;22.90;57.20;;;;;;5034317;28;20067;-91
2021/08/19 06:53:15;;;;;;;22.00;11.48;;;22.90;57.30;;;;;;5029695;28;20040;-93
2021/08/19 06:55:41;;;;;;;22.55;12.48;;;23.00;57.10;;;;;;5034099;28;20025;-91
2021/08/19 06:58:07;;;;;;;20.42;11.98;;;23.10;56.60;;;;;;5035327;28;20029;-91
2021/08/19 07:00:33;;;;;;;23.60;12.80;;;23.20;56.40;;;;;;5036001;28;20112;-91
2021/08/19 07:02:59;;;;;;;24.70;11.50;;;23.30;56.60;;;;;;5036129;28;20428;-91
2021/08/19 07:05:25;;;;;;;24.90;11.57;;;23.40;56.40;;;;;;5034514;28;20021;-92
2021/08/19 07:07:54;;;;;;;21.73;10.95;;;23.50;56.00;;;;;;5035084;28;20025;-92
2021/08/19 07:10:20;;;;;;;16.02;9.93;;;23.60;55.80;;;;;;5035073;28;20049;-93
2021/08/19 07:12:46;;;;;;;16.75;9.82;;;23.70;55.90;;;;;;5038088;28;20029;-93
2021/08/19 07:15:12;;;;;;;23.23;10.75;;;23.80;55.60;;;;;;5041907;28;20025;-92
2021/08/19 07:17:38;;;;;;;17.95;10.10;;;23.80;54.90;;;;;;5036271;28;20057;-93
2021/08/19 07:20:04;;;;;;;17.42;9.88;;;23.90;55.10;;;;;;5035392;28;20025;-93
2021/08/19 07:22:30;;;;;;;21.85;9.65;;;24.00;54.60;;;;;;5034487;28;20041;-94
2021/08/19 07:24:56;;;;;;;24.77;10.35;;;24.10;54.90;;;;;;5035919;28;20434;-91
2021/08/19 07:27:21;;;;;;;19.98;10.27;;;24.20;54.40;;;;;;5034941;28;20025;-91
2021/08/19 07:29:47;;;;;;;20.58;9.38;;;24.30;54.00;;;;;;5034289;28;20055;-92
2021/08/19 07:32:15;;;;;;;14.23;8.35;;;24.40;54.00;;;;;;5034763;28;20064;-91
2021/08/19 07:34:41;;;;;;;16.80;9.57;;;24.40;53.20;;;;;;5034791;28;20037;-91
2021/08/19 07:37:07;;;;;;;15.68;9.25;;;24.50;53.40;;;;;;5034746;28;20025;-92
2021/08/19 07:39:33;;;;;;;16.08;9.23;;;24.60;53.00;;;;;;5034765;28;20032;-91
2021/08/19 07:41:59;;;;;;;14.40;9.50;;;24.70;52.60;;;;;;5034371;28;20451;-91
2021/08/19 07:44:24;;;;;;;14.98;8.43;;;24.70;52.20;;;;;;5034777;28;20029;-92
2021/08/19 07:46:50;;;;;;;18.98;9.27;;;24.80;52.30;;;;;;5035776;28;20025;-91
2021/08/19 07:49:20;;;;;;;16.13;7.90;;;24.90;51.80;;;;;;5034043;28;20065;-92
2021/08/19 07:51:46;;;;;;;17.00;8.05;;;24.90;51.60;;;;;;5033721;28;20052;-91
2021/08/19 07:54:11;;;;;;;24.17;8.68;;;25.00;51.60;;;;;;5035060;28;20026;-91
2021/08/19 07:56:37;;;;;;;17.83;8.75;;;25.00;51.20;;;;;;5034764;28;20069;-91
2021/08/19 07:59:03;;;;;;;14.02;9.10;;;25.10;51.00;;;;;;5034006;28;20030;-91
2021/08/19 08:01:29;;;;;;;14.50;8.10;;;25.10;50.70;;;;;;5034308;28;20124;-91
2021/08/19 08:03:55;;;;;;;12.35;7.60;;;25.20;50.50;;;;;;5035842;28;20044;-90
2021/08/19 08:06:21;;;;;;;12.98;7.82;;;25.20;50.40;;;;;;5034819;28;20071;-90
2021/08/19 08:08:46;;;;;;;15.95;7.28;;;25.20;49.80;;;;;;5034284;28;20025;-93
2021/08/19 08:11:13;;;;;;;15.65;9.10;;;25.30;50.10;;;;;;5034345;28;20032;-90
2021/08/19 08:13:38;;;;;;;14.23;7.90;;;25.30;50.20;;;;;;5034567;28;20022;-90
2021/08/19 08:16:04;;;;;;;12.80;7.65;;;25.40;50.30;;;;;;5034010;28;20022;-90
2021/08/19 08:18:30;;;;;;;19.50;7.15;;;25.40;49.80;;;;;;5036330;28;20555;-92
2021/08/19 08:20:57;;;;;;;13.15;7.63;;;25.50;50.10;;;;;;5034845;28;20049;-91
2021/08/19 08:23:24;;;;;;;12.95;7.28;;;25.60;50.20;;;;;;5035079;28;20495;-90
2021/08/19 08:25:50;;;;;;;15.02;7.90;;;25.70;49.80;;;;;;5035669;28;20062;-94
2021/08/19 08:28:20;;;;;;;14.60;8.02;;;25.80;49.70;;;;;;5040041;28;20021;-94
2021/08/19 08:30:51;;;;;;;14.93;7.78;;;25.80;49.10;;;;;;5019224;28;20038;-93
2021/08/19 08:33:18;;;;;;;11.85;7.25;;;25.90;49.40;;;;;;5018818;28;20026;-94
2021/08/19 08:35:44;;;;;;;14.20;7.43;;;25.90;49.50;;;;;;5019931;28;20025;-94
2021/08/19 08:38:14;;;;;;;11.85;7.80;;;26.00;49.30;;;;;;5020344;28;20076;-94
2021/08/19 08:40:42;;;;;;;14.75;9.18;;;26.10;49.00;;;;;;5020061;28;20128;-91
2021/08/19 08:43:09;;;;;;;14.68;8.32;;;26.10;48.80;;;;;;5020510;28;20061;-91
2021/08/19 08:45:37;;;;;;;12.82;7.88;;;26.20;48.90;;;;;;5033952;28;20022;-91
2021/08/19 08:48:05;;;;;;;11.27;7.28;;;26.20;48.70;;;;;;5024988;28;20022;-93
2021/08/19 08:50:32;;;;;;;11.38;7.38;;;26.20;48.50;;;;;;5015091;28;20029;-92
2021/08/19 08:52:59;;;;;;;15.05;7.65;;;26.20;48.00;;;;;;5016305;28;20030;-92
2021/08/19 08:55:28;;;;;;;13.27;7.70;;;26.30;48.70;;;;;;5018230;28;20029;-92
2021/08/19 08:57:55;;;;;;;14.35;7.97;;;26.30;47.60;;;;;;5035195;28;20029;-90
2021/08/19 09:00:21;;;;;;;13.27;7.78;;;26.30;47.60;;;;;;5034042;28;20026;-91
2021/08/19 09:02:47;;;;;;;14.25;8.13;;;26.40;47.60;;;;;;5021401;28;20088;-90
2021/08/19 09:05:27;;;;;;;10.90;7.15;;;26.40;47.50;;;;;;5019522;28;20112;-91
2021/08/19 09:07:54;;;;;;;12.77;7.65;;;26.30;47.40;;;;;;5020920;28;20030;-91
2021/08/19 09:10:23;;;;;;;16.20;8.40;;;26.30;46.70;;;;;;5019537;28;20029;-93
2021/08/19 09:12:49;;;;;;;11.85;7.10;;;26.20;46.60;;;;;;5017724;28;20026;-92
2021/08/19 09:15:17;;;;;;;11.15;6.80;;;26.10;47.30;;;;;;5017406;28;20026;-93
2021/08/19 09:17:51;;;;;;;12.68;7.10;;;26.20;47.40;;;;;;5017372;28;20025;-92
2021/08/19 09:20:19;;;;;;;9.82;7.07;;;26.20;46.50;;;;;;5017574;28;20022;-92
2021/08/19 09:22:55;;;;;;;11.95;6.82;;;26.30;46.40;;;;;;5017107;28;20038;-92
2021/08/19 09:25:28;;;;;;;10.10;7.15;;;26.30;46.10;;;;;;5017138;28;20022;-92
2021/08/19 09:28:09;;;;;;;17.53;8.17;;;26.40;46.50;;;;;;5017448;28;20029;-92
2021/08/19 09:30:40;;;;;;;11.93;6.35;;;26.40;45.90;;;;;;5036498;28;20299;-91
2021/08/19 09:33:08;;;;;;;12.40;7.68;;;26.50;46.10;;;;;;5036433;28;20032;-92
2021/08/19 09:35:34;;;;;;;16.30;7.03;;;26.50;45.80;;;;;;5037105;28;20502;-92
2021/08/19 09:38:12;;;;;;;9.57;6.57;;;26.60;45.50;;;;;;5036588;28;20025;-92
2021/08/19 09:40:39;;;;;;;20.23;7.20;;;26.60;45.50;;;;;;5035967;28;20022;-91
2021/08/19 09:43:05;;;;;;;12.57;7.28;;;26.60;45.70;;;;;;5035991;28;20052;-92
2021/08/19 09:45:31;;;;;;;10.70;7.00;;;26.60;45.10;;;;;;5035703;28;20032;-93
2021/08/19 09:48:09;;;;;;;11.27;6.70;;;26.60;45.50;;;;;;5036061;28;20029;-91
2021/08/19 09:50:35;;;;;;;11.13;6.10;;;26.60;45.60;;;;;;5035607;28;20057;-92
2021/08/19 09:53:22;;;;;;;10.13;6.22;;;26.70;45.50;;;;;;5035767;28;20032;-92
2021/08/19 09:55:49;;;;;;;13.13;7.32;;;26.80;45.70;;;;;;5035920;28;20028;-93
2021/08/19 09:58:29;;;;;;;12.32;6.25;;;27.00;45.20;;;;;;5036063;28;20029;-94
2021/08/19 10:00:55;;;;;;;9.85;6.40;;;27.10;44.80;;;;;;5036026;28;20486;-94
2021/08/19 10:03:21;;;;;;;10.75;6.68;;;27.20;44.70;;;;;;5036798;28;20128;-94
2021/08/19 10:05:47;;;;;;;11.05;6.80;;;27.30;44.10;;;;;;5036355;28;20120;-94
2021/08/19 10:08:13;;;;;;;9.10;6.53;;;27.30;44.40;;;;;;5035646;28;20534;-93
2021/08/19 10:10:43;;;;;;;12.20;6.30;;;27.40;44.60;;;;;;5036240;28;20030;-93
2021/08/19 10:13:11;;;;;;;9.63;5.85;;;27.50;43.90;;;;;;5035258;28;20033;-94
2021/08/19 10:15:40;;;;;;;9.82;5.70;;;27.60;44.30;;;;;;5036288;28;20025;-94
2021/08/19 10:18:07;;;;;;;10.32;6.55;;;27.70;43.60;;;;;;5035485;28;20096;-94
2021/08/19 10:20:37;;;;;;;6.53;5.18;;;27.70;43.50;;;;;;5037213;28;20076;-94
2021/08/19 10:23:04;;;;;;;8.55;5.95;;;27.80;43.90;;;;;;5035769;28;20467;-94
2021/08/19 10:25:30;;;;;;;9.30;6.03;;;27.90;43.70;;;;;;5035544;28;20400;-94
2021/08/19 10:28:20;;;;;;;7.95;5.38;;;28.00;43.50;;;;;;5035799;28;20051;-94
2021/08/19 10:30:47;;;;;;;9.82;6.50;;;28.00;43.80;;;;;;5042271;28;20045;-95
2021/08/19 10:33:35;;;;;;;8.40;5.35;;;28.10;42.60;;;;;;5038534;28;20112;-92
2021/08/19 10:36:10;;;;;;;8.80;5.68;;;28.10;43.20;;;;;;5038040;28;20030;-92
2021/08/19 10:38:38;;;;;;;7.80;5.32;;;28.00;42.80;;;;;;5037863;28;20026;-92
2021/08/19 10:41:30;;;;;;;7.43;5.20;;;28.10;43.10;;;;;;5037795;28;20026;-91
2021/08/19 10:44:10;;;;;;;9.32;5.75;;;28.10;43.30;;;;;;5033309;28;20080;-93
2021/08/19 10:46:41;;;;;;;6.97;5.40;;;28.20;43.10;;;;;;5035138;28;20049;-92
2021/08/19 10:49:08;;;;;;;10.23;5.70;;;28.20;42.70;;;;;;5035442;28;20025;-94
2021/08/19 10:51:33;;;;;;;9.82;6.28;;;28.20;42.80;;;;;;5035639;28;20025;-94
2021/08/19 10:53:59;;;;;;;8.68;5.68;;;28.20;42.20;;;;;;5037375;28;20143;-93
2021/08/19 10:56:51;;;;;;;10.07;5.63;;;28.20;42.40;;;;;;5046524;28;20002;-92
2021/08/19 10:59:33;;;;;;;9.07;6.05;;;28.20;43.10;;;;;;5053249;28;20063;-91
2021/08/19 11:02:00;;;;;;;6.70;5.25;;;28.30;42.60;;;;;;5039035;28;20120;-93
2021/08/19 11:04:43;;;;;;;8.90;5.30;;;28.40;42.30;;;;;;5034933;28;20052;-91
2021/08/19 11:07:10;;;;;;;6.93;4.95;;;28.50;42.60;;;;;;5034811;28;20074;-92
2021/08/19 11:09:37;;;;;;;7.15;4.97;;;28.60;41.80;;;;;;5034817;28;20030;-92
2021/08/19 11:12:07;;;;;;;7.40;5.05;;;28.60;40.90;;;;;;5033016;28;20032;-92
2021/08/19 11:14:33;;;;;;;13.77;5.10;;;28.60;41.20;;;;;;5032835;28;20030;-93
2021/08/19 11:17:03;;;;;;;8.30;5.07;;;28.60;41.50;;;;;;5034683;28;20061;-93
2021/08/19 11:19:31;;;;;;;9.10;5.88;;;28.50;41.20;;;;;;5033374;28;20017;-90
2021/08/19 11:22:01;;;;;;;6.65;4.90;;;28.50;41.70;;;;;;5040590;28;20080;-94
2021/08/19 11:24:33;;;;;;;8.38;5.43;;;28.50;41.80;;;;;;5033376;28;20029;-91
2021/08/19 11:27:07;;;;;;;7.18;4.55;;;28.40;42.00;;;;;;5035148;28;20045;-95
2021/08/19 11:29:38;;;;;;;6.15;4.55;;;28.40;42.40;;;;;;5038308;28;20041;-94
2021/08/19 11:32:04;;;;;;;5.47;4.13;;;28.40;42.70;;;;;;5034302;28;20021;-93
2021/08/19 11:34:30;;;;;;;4.40;3.38;;;28.50;43.00;;;;;;5034463;28;20025;-92
2021/08/19 11:36:56;;;;;;;3.88;2.97;;;28.50;41.90;;;;;;5034393;28;20464;-94
2021/08/19 11:39:27;;;;;;;7.47;3.13;;;28.60;41.80;;;;;;5034088;28;20030;-93
2021/08/19 11:42:00;;;;;;;2.97;2.45;;;28.70;40.80;;;;;;5035608;28;20364;-92
2021/08/19 11:44:26;;;;;;;3.20;2.22;;;28.80;41.00;;;;;;5033907;28;20079;-92
2021/08/19 11:47:01;;;;;;;3.25;2.15;;;29.00;41.50;;;;;;5033775;28;20021;-92
2021/08/19 11:49:27;;;;;;;2.92;2.22;;;29.10;41.40;;;;;;5034734;28;20029;-92
2021/08/19 11:52:07;;;;;;;3.83;2.10;;;29.30;40.20;;;;;;5033692;28;20017;-91
2021/08/19 11:54:40;;;;;;;4.10;2.35;;;29.40;39.50;;;;;;5033529;28;20026;-92
2021/08/19 11:57:06;;;;;;;2.53;2.00;;;29.50;39.20;;;;;;5033402;28;20018;-90
2021/08/19 11:59:32;;;;;;;2.67;2.15;;;29.50;38.10;;;;;;5034837;28;20105;-90
2021/08/19 12:01:58;;;;;;;3.63;2.25;;;29.50;37.80;;;;;;5018508;28;20021;-92
2021/08/19 12:04:42;;;;;;;3.70;1.88;;;29.50;38.10;;;;;;5034479;28;20025;-91
2021/08/19 12:07:07;;;;;;;4.55;1.92;;;29.60;38.90;;;;;;5033881;28;20114;-92
2021/08/19 12:09:35;;;;;;;4.60;1.65;;;29.70;37.70;;;;;;5033563;28;20057;-92
2021/08/19 12:12:04;;;;;;;2.88;2.00;;;29.70;36.80;;;;;;5033244;28;20025;-91
2021/08/19 12:14:31;;;;;;;4.43;1.70;;;29.70;37.00;;;;;;5034024;28;20444;-93
2021/08/19 12:16:57;;;;;;;2.33;1.70;;;29.70;37.20;;;;;;5033751;28;20025;-93
2021/08/19 12:19:24;;;;;;;3.40;2.38;;;29.70;37.20;;;;;;5034222;28;20165;-95
2021/08/19 12:21:52;;;;;;;2.72;1.95;;;29.70;37.70;;;;;;5035019;28;20266;-94
2021/08/19 12:24:20;;;;;;;2.30;1.90;;;29.70;38.20;;;;;;5034896;28;20476;-94
2021/08/19 12:27:07;;;;;;;3.92;2.55;;;29.90;37.90;;;;;;5034077;28;20112;-91
2021/08/19 12:29:47;;;;;;;5.45;2.70;;;29.90;37.60;;;;;;5033999;28;20545;-92
2021/08/19 12:32:32;;;;;;;3.67;1.95;;;29.90;37.70;;;;;;5035026;28;20061;-91
2021/08/19 12:35:00;;;;;;;2.58;2.03;;;29.80;37.00;;;;;;5057602;28;20016;-94
2021/08/19 12:37:28;;;;;;;3.75;1.83;;;29.80;36.90;;;;;;5057686;28;20042;-91
2021/08/19 12:39:54;;;;;;;2.80;1.98;;;29.80;37.50;;;;;;5043082;28;20018;-91